createdAt,value
2023-02-24T00:00:33.037Z,98184.03
2023-02-24T00:00:52.624Z,98185.03
2023-02-24T00:01:13.351Z,98179.69
2023-02-24T00:01:26.202Z,98182.50
2023-02-24T00:01:39.512Z,98181.94
2023-02-24T00:02:00.138Z,98186.16
2023-02-24T00:02:15.049Z,98181.75
2023-02-24T00:02:29.466Z,98183.56
2023-02-24T00:02:42.392Z,98183.66
2023-02-24T00:02:55.188Z,98177.56
2023-02-24T00:03:11.186Z,98178.56
2023-02-24T00:03:24.350Z,98180.37
2023-02-24T00:03:37.528Z,98181.06
2023-02-24T00:03:56.812Z,98181.06
2023-02-24T00:04:11.701Z,98181.97
2023-02-24T00:04:24.503Z,98182.09
2023-02-24T00:04:39.540Z,98176.03
2023-02-24T00:04:52.609Z,98177.63
2023-02-24T00:05:05.790Z,98180.16
2023-02-24T00:05:18.866Z,98180.28
2023-02-24T00:05:35.726Z,98180.94
2023-02-24T00:05:49.996Z,98182.66
2023-02-24T00:06:05.763Z,98179.94
2023-02-24T00:06:18.679Z,98181.75
2023-02-24T00:06:36.116Z,98179.06
2023-02-24T00:06:48.985Z,98184.28
2023-02-24T00:07:02.583Z,98177.03
2023-02-24T00:07:16.911Z,98183.03
2023-02-24T00:07:30.159Z,98172.47
2023-02-24T00:07:42.942Z,98176.97
2023-02-24T00:07:55.744Z,98183.12
2023-02-24T00:08:08.541Z,98177.63
2023-02-24T00:08:21.333Z,98179.47
2023-02-24T00:08:34.123Z,98175.91
2023-02-24T00:08:47.411Z,98175.91
2023-02-24T00:09:00.220Z,98175.09
2023-02-24T00:09:20.344Z,98180.25
2023-02-24T00:09:33.470Z,98172.47
2023-02-24T00:09:46.645Z,98177.75
2023-02-24T00:09:59.718Z,98170.72
2023-02-24T00:10:19.349Z,98175.03
2023-02-24T00:10:32.845Z,98169.78
2023-02-24T00:10:45.672Z,98170.63
2023-02-24T00:10:58.632Z,98172.34
2023-02-24T00:11:15.203Z,98172.22
2023-02-24T00:11:28.160Z,98172.88
2023-02-24T00:11:43.344Z,98168.50
2023-02-24T00:11:57.863Z,98168.50
2023-02-24T00:12:13.106Z,98168.59
2023-02-24T00:12:25.968Z,98168.78
2023-02-24T00:12:38.869Z,98170.50
2023-02-24T00:12:53.995Z,98167.06
2023-02-24T00:13:07.520Z,98163.25
2023-02-24T00:13:22.421Z,98167.88
2023-02-24T00:13:35.675Z,98168.72
2023-02-24T00:13:48.569Z,98169.56
2023-02-24T00:14:02.114Z,98165.72
2023-02-24T00:14:16.219Z,98172.47
2023-02-24T00:14:30.789Z,98166.41
2023-02-24T00:14:44.486Z,98170.16
2023-02-24T00:14:57.293Z,98164.75
2023-02-24T00:15:10.228Z,98168.12
2023-02-24T00:15:23.107Z,98169.22
2023-02-24T00:15:35.877Z,98162.91
2023-02-24T00:16:00.957Z,98170.81
2023-02-24T00:16:17.485Z,98168.19
2023-02-24T00:16:30.462Z,98165.59
2023-02-24T00:16:45.082Z,98169.91
2023-02-24T00:17:01.277Z,98173.16
2023-02-24T00:17:14.660Z,98158.91
2023-02-24T00:17:30.469Z,98167.09
2023-02-24T00:17:46.391Z,98168.69
2023-02-24T00:17:59.172Z,98169.66
2023-02-24T00:18:11.962Z,98171.47
2023-02-24T00:18:24.754Z,98162.69
2023-02-24T00:18:37.549Z,98171.31
2023-02-24T00:18:51.168Z,98165.25
2023-02-24T00:19:04.489Z,98163.16
2023-02-24T00:19:19.163Z,98167.53
2023-02-24T00:19:35.118Z,98164.06
2023-02-24T00:19:47.943Z,98162.28
2023-02-24T00:20:00.731Z,98163.47
2023-02-24T00:20:13.816Z,98170.47
2023-02-24T00:20:26.630Z,98163.63
2023-02-24T00:20:39.518Z,98163.87
2023-02-24T00:20:56.415Z,98163.03
2023-02-24T00:21:13.515Z,98160.50
2023-02-24T00:21:26.318Z,98157.94
2023-02-24T00:21:39.186Z,98161.47
2023-02-24T00:21:52.127Z,98165.09
2023-02-24T00:22:06.338Z,98164.37
2023-02-24T00:22:20.359Z,98161.78
2023-02-24T00:22:33.281Z,98167.19
2023-02-24T00:22:46.094Z,98159.81
2023-02-24T00:23:00.375Z,98162.31
2023-02-24T00:23:18.531Z,98157.88
2023-02-24T00:23:31.358Z,98166.47
2023-02-24T00:23:46.692Z,98162.91
2023-02-24T00:23:59.608Z,98157.63
2023-02-24T00:24:12.637Z,98168.12
2023-02-24T00:24:25.484Z,98164.63
2023-02-24T00:24:38.345Z,98157.63
2023-02-24T00:24:51.244Z,98160.19
2023-02-24T00:25:04.332Z,98158.47
2023-02-24T00:25:17.137Z,98161.84
2023-02-24T00:25:29.958Z,98160.97
2023-02-24T00:25:42.792Z,98168.03
2023-02-24T00:26:00.209Z,98160.81
2023-02-24T00:26:14.042Z,98159.97
2023-02-24T00:26:27.013Z,98162.84
2023-02-24T00:26:39.924Z,98168.19
2023-02-24T00:26:54.482Z,98164.09
2023-02-24T00:27:08.019Z,98164.06
2023-02-24T00:27:20.955Z,98161.53
2023-02-24T00:27:33.829Z,98162.38
2023-02-24T00:27:46.633Z,98159.88
2023-02-24T00:28:01.775Z,98154.66
2023-02-24T00:28:14.633Z,98161.84
2023-02-24T00:28:28.682Z,98161.91
2023-02-24T00:28:41.611Z,98156.37
2023-02-24T00:28:54.529Z,98165.22
2023-02-24T00:29:09.563Z,98164.87
2023-02-24T00:29:22.753Z,98164.50
2023-02-24T00:29:37.684Z,98161.69
2023-02-24T00:29:50.705Z,98161.81
2023-02-24T00:30:05.317Z,98157.63
2023-02-24T00:30:18.283Z,98164.56
2023-02-24T00:30:33.119Z,98160.09
2023-02-24T00:30:46.097Z,98156.41
2023-02-24T00:31:05.853Z,98160.69
2023-02-24T00:31:19.676Z,98158.97
2023-02-24T00:31:33.057Z,98164.25
2023-02-24T00:31:47.284Z,98159.13
2023-02-24T00:32:00.937Z,98159.22
2023-02-24T00:32:14.889Z,98159.22
2023-02-24T00:32:28.343Z,98156.56
2023-02-24T00:32:41.404Z,98160.12
2023-02-24T00:32:54.361Z,98155.78
2023-02-24T00:33:07.225Z,98150.28
2023-02-24T00:33:23.560Z,98159.91
2023-02-24T00:33:36.438Z,98159.13
2023-02-24T00:33:49.523Z,98162.28
2023-02-24T00:34:02.345Z,98154.69
2023-02-24T00:34:15.704Z,98154.69
2023-02-24T00:34:31.747Z,98149.53
2023-02-24T00:34:44.566Z,98154.84
2023-02-24T00:34:57.422Z,98168.06
2023-02-24T00:35:10.292Z,98160.97
2023-02-24T00:35:23.098Z,98160.69
2023-02-24T00:35:35.969Z,98156.16
2023-02-24T00:35:49.444Z,98158.84
2023-02-24T00:36:10.061Z,98157.06
2023-02-24T00:36:25.706Z,98151.84
2023-02-24T00:36:38.650Z,98152.22
2023-02-24T00:36:51.486Z,98154.13
2023-02-24T00:37:07.020Z,98150.75
2023-02-24T00:37:23.969Z,98154.38
2023-02-24T00:37:36.831Z,98155.34
2023-02-24T00:37:51.328Z,98156.03
2023-02-24T00:38:04.632Z,98156.75
2023-02-24T00:38:17.804Z,98155.69
2023-02-24T00:38:35.884Z,98155.09
2023-02-24T00:38:48.682Z,98149.53
2023-02-24T00:39:09.188Z,98155.56
2023-02-24T00:39:30.400Z,98156.63
2023-02-24T00:39:44.255Z,98154.63
2023-02-24T00:39:58.685Z,98153.47
2023-02-24T00:40:12.183Z,98153.06
2023-02-24T00:40:25.031Z,98149.72
2023-02-24T00:40:37.813Z,98147.28
2023-02-24T00:40:50.599Z,98141.28
2023-02-24T00:41:14.391Z,98144.72
2023-02-24T00:41:31.390Z,98148.13
2023-02-24T00:41:44.693Z,98149.91
2023-02-24T00:42:06.745Z,98154.28
2023-02-24T00:42:19.584Z,98154.78
2023-02-24T00:42:32.414Z,98146.22
2023-02-24T00:42:45.673Z,98146.78
2023-02-24T00:42:58.529Z,98144.72
2023-02-24T00:43:14.127Z,98144.13
2023-02-24T00:43:26.937Z,98142.72
2023-02-24T00:43:40.256Z,98142.28
2023-02-24T00:43:53.085Z,98147.50
2023-02-24T00:44:08.605Z,98145.00
2023-02-24T00:44:24.104Z,98145.22
2023-02-24T00:44:38.831Z,98144.41
2023-02-24T00:44:54.072Z,98151.00
2023-02-24T00:45:10.366Z,98140.06
2023-02-24T00:45:23.182Z,98142.91
2023-02-24T00:45:39.089Z,98136.56
2023-02-24T00:45:52.159Z,98143.44
2023-02-24T00:46:11.484Z,98137.62
2023-02-24T00:46:26.180Z,98141.06
2023-02-24T00:46:40.811Z,98139.34
2023-02-24T00:46:53.627Z,98143.44
2023-02-24T00:47:07.640Z,98139.78
2023-02-24T00:47:20.537Z,98137.12
2023-02-24T00:47:38.867Z,98139.16
2023-02-24T00:47:51.668Z,98139.09
2023-02-24T00:48:04.813Z,98144.22
2023-02-24T00:48:17.618Z,98133.87
2023-02-24T00:48:31.546Z,98142.03
2023-02-24T00:48:47.570Z,98135.78
2023-02-24T00:49:04.406Z,98139.16
2023-02-24T00:49:18.794Z,98136.38
2023-02-24T00:49:32.045Z,98145.41
2023-02-24T00:49:44.959Z,98143.78
2023-02-24T00:49:57.752Z,98134.06
2023-02-24T00:50:11.084Z,98140.28
2023-02-24T00:50:24.902Z,98145.78
2023-02-24T00:50:39.081Z,98142.22
2023-02-24T00:50:52.313Z,98139.56
2023-02-24T00:51:07.765Z,98136.28
2023-02-24T00:51:23.425Z,98135.34
2023-02-24T00:51:38.000Z,98134.00
2023-02-24T00:51:54.299Z,98141.00
2023-02-24T00:52:08.604Z,98133.25
2023-02-24T00:52:22.005Z,98143.38
2023-02-24T00:52:34.839Z,98131.78
2023-02-24T00:52:48.442Z,98131.91
2023-02-24T00:53:01.433Z,98132.72
2023-02-24T00:53:14.263Z,98134.00
2023-02-24T00:53:29.408Z,98137.00
2023-02-24T00:53:42.586Z,98132.25
2023-02-24T00:53:56.115Z,98130.72
2023-02-24T00:54:10.206Z,98133.59
2023-02-24T00:54:27.095Z,98139.72
2023-02-24T00:54:40.985Z,98129.66
2023-02-24T00:54:53.786Z,98135.38
2023-02-24T00:55:15.146Z,98135.72
2023-02-24T00:55:36.351Z,98131.44
2023-02-24T00:55:49.768Z,98126.16
2023-02-24T00:56:02.632Z,98128.03
2023-02-24T00:56:16.275Z,98130.00
2023-02-24T00:56:29.625Z,98127.38
2023-02-24T00:56:43.366Z,98129.16
2023-02-24T00:56:56.334Z,98129.22
2023-02-24T00:57:09.341Z,98126.19
2023-02-24T00:57:22.335Z,98127.09
2023-02-24T00:57:35.459Z,98127.31
2023-02-24T00:57:50.807Z,98131.66
2023-02-24T00:58:04.704Z,98128.28
2023-02-24T00:58:19.557Z,98124.84
2023-02-24T00:58:32.617Z,98123.06
2023-02-24T00:58:45.450Z,98128.59
2023-02-24T00:58:59.396Z,98125.16
2023-02-24T00:59:13.133Z,98126.63
2023-02-24T00:59:26.202Z,98123.31
2023-02-24T00:59:39.303Z,98125.16
2023-02-24T00:59:52.233Z,98130.66
2023-02-24T01:00:10.376Z,98124.53
2023-02-24T01:00:23.639Z,98118.28
2023-02-24T01:00:37.074Z,98124.22
2023-02-24T01:00:49.917Z,98124.84
2023-02-24T01:01:04.405Z,98130.16
2023-02-24T01:01:19.841Z,98115.75
2023-02-24T01:01:33.263Z,98121.09
2023-02-24T01:01:46.223Z,98122.16
2023-02-24T01:01:59.119Z,98122.25
2023-02-24T01:02:12.030Z,98127.50
2023-02-24T01:02:24.830Z,98121.78
2023-02-24T01:02:38.366Z,98118.31
2023-02-24T01:02:51.155Z,98120.25
2023-02-24T01:03:04.093Z,98123.44
2023-02-24T01:03:17.060Z,98122.69
2023-02-24T01:03:30.216Z,98120.16
2023-02-24T01:03:43.927Z,98122.94
2023-02-24T01:03:56.909Z,98115.94
2023-02-24T01:04:12.957Z,98120.97
2023-02-24T01:04:25.800Z,98116.59
2023-02-24T01:04:38.752Z,98121.53
2023-02-24T01:04:51.663Z,98122.31
2023-02-24T01:05:04.862Z,98118.59
2023-02-24T01:05:17.772Z,98116.03
2023-02-24T01:05:30.996Z,98118.75
2023-02-24T01:05:43.786Z,98118.22
2023-02-24T01:05:56.637Z,98115.81
2023-02-24T01:06:09.621Z,98119.25
2023-02-24T01:06:23.883Z,98115.03
2023-02-24T01:06:40.473Z,98111.47
2023-02-24T01:07:00.125Z,98112.31
2023-02-24T01:07:13.499Z,98119.50
2023-02-24T01:07:29.500Z,98116.81
2023-02-24T01:07:42.307Z,98117.66
2023-02-24T01:07:55.222Z,98118.66
2023-02-24T01:08:08.103Z,98113.59
2023-02-24T01:08:23.565Z,98113.00
2023-02-24T01:08:38.563Z,98115.75
2023-02-24T01:08:52.328Z,98115.66
2023-02-24T01:09:08.273Z,98112.59
2023-02-24T01:09:21.164Z,98113.66
2023-02-24T01:09:34.890Z,98110.31
2023-02-24T01:09:50.001Z,98116.25
2023-02-24T01:10:05.131Z,98116.09
2023-02-24T01:10:22.322Z,98114.41
2023-02-24T01:10:35.146Z,98114.22
2023-02-24T01:11:20.380Z,98115.16
2023-02-24T01:11:52.912Z,98102.31
2023-02-24T01:12:29.213Z,98107.59
2023-02-24T01:12:50.850Z,98104.31
2023-02-24T01:13:03.673Z,98107.03
2023-02-24T01:13:16.467Z,98104.09
2023-02-24T01:13:29.309Z,98106.41
2023-02-24T01:13:42.089Z,98103.03
2023-02-24T01:13:54.881Z,98102.19
2023-02-24T01:14:09.349Z,98103.31
2023-02-24T01:14:23.836Z,98098.88
2023-02-24T01:14:36.720Z,98107.47
2023-02-24T01:14:51.142Z,98101.31
2023-02-24T01:15:05.082Z,98099.41
2023-02-24T01:15:19.036Z,98097.34
2023-02-24T01:15:31.864Z,98094.63
2023-02-24T01:15:44.709Z,98096.34
2023-02-24T01:16:03.296Z,98101.75
2023-02-24T01:16:18.731Z,98095.69
2023-02-24T01:16:31.902Z,98100.34
2023-02-24T01:16:50.736Z,98094.41
2023-02-24T01:17:04.094Z,98097.84
2023-02-24T01:17:18.351Z,98095.25
2023-02-24T01:17:31.237Z,98096.41
2023-02-24T01:17:44.251Z,98101.47
2023-02-24T01:17:57.090Z,98094.13
2023-02-24T01:18:11.017Z,98099.53
2023-02-24T01:18:23.829Z,98096.63
2023-02-24T01:18:36.665Z,98096.13
2023-02-24T01:18:49.470Z,98099.84
2023-02-24T01:19:02.886Z,98094.84
2023-02-24T01:19:18.840Z,98087.75
2023-02-24T01:19:32.152Z,98097.81
2023-02-24T01:19:45.615Z,98090.91
2023-02-24T01:20:00.918Z,98100.19
2023-02-24T01:20:17.959Z,98084.03
2023-02-24T01:20:33.093Z,98083.50
2023-02-24T01:20:45.888Z,98085.34
2023-02-24T01:20:58.989Z,98084.69
2023-02-24T01:21:12.772Z,98093.53
2023-02-24T01:21:25.687Z,98090.69
2023-02-24T01:21:38.503Z,98085.19
2023-02-24T01:21:55.283Z,98087.75
2023-02-24T01:22:10.051Z,98100.53
2023-02-24T01:22:23.878Z,98092.06
2023-02-24T01:22:39.726Z,98089.63
2023-02-24T01:22:56.812Z,98087.13
2023-02-24T01:23:09.604Z,98086.47
2023-02-24T01:23:24.281Z,98089.25
2023-02-24T01:23:37.324Z,98091.88
2023-02-24T01:23:50.408Z,98082.13
2023-02-24T01:24:03.288Z,98090.03
2023-02-24T01:24:16.129Z,98090.56
2023-02-24T01:24:31.025Z,98087.75
2023-02-24T01:24:44.146Z,98091.47
2023-02-24T01:24:56.975Z,98080.91
2023-02-24T01:25:09.829Z,98087.13
2023-02-24T01:25:22.756Z,98086.22
2023-02-24T01:25:35.557Z,98088.69
2023-02-24T01:25:48.441Z,98086.53
2023-02-24T01:26:02.363Z,98082.84
2023-02-24T01:26:15.786Z,98082.06
2023-02-24T01:26:28.919Z,98074.06
2023-02-24T01:26:42.714Z,98086.72
2023-02-24T01:26:55.531Z,98087.34
2023-02-24T01:27:08.432Z,98082.13
2023-02-24T01:27:21.259Z,98086.06
2023-02-24T01:27:37.061Z,98078.72
2023-02-24T01:27:50.614Z,98077.00
2023-02-24T01:28:03.428Z,98075.16
2023-02-24T01:28:16.227Z,98078.78
2023-02-24T01:28:29.024Z,98073.50
2023-02-24T01:28:42.719Z,98077.63
2023-02-24T01:28:55.744Z,98075.06
2023-02-24T01:29:11.470Z,98077.69
2023-02-24T01:29:25.716Z,98072.34
2023-02-24T01:29:39.781Z,98072.94
2023-02-24T01:29:53.590Z,98074.84
2023-02-24T01:30:16.205Z,98076.12
2023-02-24T01:30:29.266Z,98073.63
2023-02-24T01:30:44.388Z,98071.84
2023-02-24T01:31:05.370Z,98071.03
2023-02-24T01:31:20.955Z,98067.28
2023-02-24T01:31:34.151Z,98072.87
2023-02-24T01:31:49.532Z,98068.50
2023-02-24T01:32:03.072Z,98070.97
2023-02-24T01:32:19.376Z,98067.84
2023-02-24T01:32:32.492Z,98069.09
2023-02-24T01:32:47.022Z,98066.22
2023-02-24T01:33:00.285Z,98068.72
2023-02-24T01:33:16.446Z,98059.28
2023-02-24T01:33:30.088Z,98063.28
2023-02-24T01:33:45.791Z,98059.34
2023-02-24T01:33:58.587Z,98062.44
2023-02-24T01:34:12.981Z,98062.91
2023-02-24T01:34:26.381Z,98056.16
2023-02-24T01:34:39.266Z,98061.84
2023-02-24T01:34:52.161Z,98062.94
2023-02-24T01:35:05.380Z,98062.22
2023-02-24T01:35:18.157Z,98064.50
2023-02-24T01:35:31.777Z,98059.88
2023-02-24T01:35:44.589Z,98064.50
2023-02-24T01:35:57.389Z,98066.22
2023-02-24T01:36:10.863Z,98059.16
2023-02-24T01:36:25.729Z,98060.72
2023-02-24T01:36:39.779Z,98061.84
2023-02-24T01:36:52.598Z,98054.16
2023-02-24T01:37:05.399Z,98059.81
2023-02-24T01:37:19.357Z,98061.16
2023-02-24T01:37:32.502Z,98059.41
2023-02-24T01:37:45.773Z,98059.16
2023-02-24T01:37:59.183Z,98057.59
2023-02-24T01:38:11.986Z,98062.94
2023-02-24T01:38:25.357Z,98057.69
2023-02-24T01:38:39.189Z,98059.53
2023-02-24T01:38:52.159Z,98056.87
2023-02-24T01:39:06.982Z,98060.31
2023-02-24T01:39:19.958Z,98064.69
2023-02-24T01:39:32.750Z,98058.66
2023-02-24T01:39:46.528Z,98063.34
2023-02-24T01:39:59.378Z,98056.41
2023-02-24T01:40:18.666Z,98066.91
2023-02-24T01:40:31.712Z,98060.59
2023-02-24T01:40:44.693Z,98058.37
2023-02-24T01:40:59.304Z,98067.00
2023-02-24T01:41:14.064Z,98054.59
2023-02-24T01:41:30.921Z,98058.09
2023-02-24T01:41:45.151Z,98054.44
2023-02-24T01:42:01.253Z,98051.97
2023-02-24T01:42:21.937Z,98052.25
2023-02-24T01:42:34.814Z,98054.81
2023-02-24T01:42:47.766Z,98060.38
2023-02-24T01:43:00.724Z,98057.03
2023-02-24T01:43:13.560Z,98055.09
2023-02-24T01:43:26.379Z,98053.75
2023-02-24T01:43:58.943Z,98052.53
2023-02-24T01:44:14.611Z,98062.00
2023-02-24T01:44:32.487Z,98051.91
2023-02-24T01:44:45.344Z,98051.66
2023-02-24T01:45:03.515Z,98053.69
2023-02-24T01:45:18.822Z,98052.75
2023-02-24T01:45:36.705Z,98050.97
2023-02-24T01:45:51.779Z,98041.34
2023-02-24T01:46:04.618Z,98045.91
2023-02-24T01:46:17.653Z,98050.03
2023-02-24T01:46:33.678Z,98050.87
2023-02-24T01:46:48.105Z,98041.81
2023-02-24T01:47:01.450Z,98048.03
2023-02-24T01:47:16.134Z,98045.25
2023-02-24T01:47:31.322Z,98042.50
2023-02-24T01:47:47.304Z,98047.88
2023-02-24T01:48:01.879Z,98054.97
2023-02-24T01:48:17.292Z,98040.41
2023-02-24T01:48:30.109Z,98043.06
2023-02-24T01:48:42.927Z,98047.03
2023-02-24T01:48:58.791Z,98055.59
2023-02-24T01:49:29.713Z,98052.91
2023-02-24T01:49:44.045Z,98045.31
2023-02-24T01:49:56.855Z,98047.81
2023-02-24T01:50:10.402Z,98045.66
2023-02-24T01:50:23.457Z,98046.53
2023-02-24T01:50:36.699Z,98039.63
2023-02-24T01:50:50.306Z,98048.22
2023-02-24T01:51:03.147Z,98050.44
2023-02-24T01:51:16.660Z,98042.69
2023-02-24T01:51:32.158Z,98041.47
2023-02-24T01:51:50.351Z,98041.69
2023-02-24T01:52:08.149Z,98041.25
2023-02-24T01:52:26.239Z,98038.88
2023-02-24T01:52:39.100Z,98040.38
2023-02-24T01:52:56.087Z,98039.75
2023-02-24T01:53:08.979Z,98045.16
2023-02-24T01:53:21.766Z,98042.69
2023-02-24T01:53:34.551Z,98040.13
2023-02-24T01:53:47.512Z,98039.34
2023-02-24T01:54:01.025Z,98041.84
2023-02-24T01:54:15.362Z,98040.88
2023-02-24T01:54:30.792Z,98041.75
2023-02-24T01:54:44.540Z,98041.75
2023-02-24T01:55:14.458Z,98035.41
2023-02-24T01:55:31.861Z,98036.81
2023-02-24T01:55:51.938Z,98034.41
2023-02-24T01:56:06.886Z,98034.47
2023-02-24T01:56:19.684Z,98036.91
2023-02-24T01:56:32.551Z,98033.91
2023-02-24T01:56:47.641Z,98038.09
2023-02-24T01:57:00.446Z,98038.16
2023-02-24T01:57:16.642Z,98037.53
2023-02-24T01:57:31.174Z,98035.81
2023-02-24T01:57:46.191Z,98039.56
2023-02-24T01:58:00.407Z,98036.06
2023-02-24T01:58:25.149Z,98038.78
2023-02-24T01:58:38.021Z,98037.25
2023-02-24T01:58:50.821Z,98028.75
2023-02-24T01:59:03.617Z,98030.41
2023-02-24T01:59:16.428Z,98028.56
2023-02-24T01:59:29.713Z,98039.47
2023-02-24T01:59:43.761Z,98028.69
2023-02-24T02:00:02.192Z,98037.00
2023-02-24T02:00:36.976Z,98031.19
2023-02-24T02:00:49.880Z,98038.91
2023-02-24T02:01:08.774Z,98035.97
2023-02-24T02:01:21.894Z,98036.25
2023-02-24T02:01:40.761Z,98037.19
2023-02-24T02:01:55.309Z,98028.41
2023-02-24T02:02:08.565Z,98034.63
2023-02-24T02:02:22.167Z,98034.09
2023-02-24T02:02:35.217Z,98035.22
2023-02-24T02:02:50.469Z,98033.69
2023-02-24T02:03:09.856Z,98036.56
2023-02-24T02:03:31.188Z,98029.56
2023-02-24T02:03:44.420Z,98025.25
2023-02-24T02:04:00.655Z,98029.38
2023-02-24T02:04:28.059Z,98026.97
2023-02-24T02:04:44.902Z,98027.91
2023-02-24T02:05:01.117Z,98026.00
2023-02-24T02:05:14.869Z,98024.41
2023-02-24T02:05:27.743Z,98024.41
2023-02-24T02:05:40.820Z,98029.81
2023-02-24T02:05:56.123Z,98026.13
2023-02-24T02:06:11.215Z,98028.44
2023-02-24T02:06:24.051Z,98023.56
2023-02-24T02:06:39.663Z,98024.56
2023-02-24T02:06:52.824Z,98025.41
2023-02-24T02:07:06.057Z,98026.19
2023-02-24T02:07:21.903Z,98023.91
2023-02-24T02:07:34.731Z,98024.06
2023-02-24T02:07:47.520Z,98025.50
2023-02-24T02:08:00.570Z,98025.50
2023-02-24T02:08:13.701Z,98024.56
2023-02-24T02:08:26.515Z,98027.50
2023-02-24T02:08:42.731Z,98022.44
2023-02-24T02:08:55.524Z,98023.34
2023-02-24T02:09:08.608Z,98022.50
2023-02-24T02:09:21.474Z,98027.84
2023-02-24T02:09:34.826Z,98028.63
2023-02-24T02:09:47.825Z,98024.19
2023-02-24T02:10:04.283Z,98024.84
2023-02-24T02:10:18.562Z,98023.91
2023-02-24T02:10:32.040Z,98025.09
2023-02-24T02:10:45.175Z,98025.41
2023-02-24T02:11:01.605Z,98026.34
2023-02-24T02:11:20.373Z,98030.75
2023-02-24T02:11:33.471Z,98025.72
2023-02-24T02:11:49.181Z,98017.28
2023-02-24T02:12:02.017Z,98023.91
2023-02-24T02:12:15.178Z,98024.03
2023-02-24T02:12:28.119Z,98023.03
2023-02-24T02:12:44.319Z,98020.41
2023-02-24T02:12:57.571Z,98022.62
2023-02-24T02:13:14.481Z,98021.94
2023-02-24T02:13:27.679Z,98027.50
2023-02-24T02:13:43.176Z,98020.22
2023-02-24T02:13:56.953Z,98026.19
2023-02-24T02:14:09.872Z,98025.50
2023-02-24T02:14:25.223Z,98022.13
2023-02-24T02:14:39.865Z,98020.50
2023-02-24T02:14:53.832Z,98023.38
2023-02-24T02:15:08.839Z,98024.28
2023-02-24T02:15:21.767Z,98023.91
2023-02-24T02:15:36.956Z,98024.66
2023-02-24T02:16:17.917Z,98022.94
2023-02-24T02:16:39.393Z,98020.25
2023-02-24T02:17:16.800Z,98026.59
2023-02-24T02:18:02.807Z,98020.97
2023-02-24T02:18:24.283Z,98022.88
2023-02-24T02:18:48.026Z,98025.50
2023-02-24T02:19:03.606Z,98026.06
2023-02-24T02:19:55.557Z,98023.69
2023-02-24T02:20:36.781Z,98027.31
2023-02-24T02:21:08.889Z,98017.22
2023-02-24T02:41:04.366Z,97996.69
2023-02-24T02:41:28.809Z,97996.69
2023-02-24T02:41:53.233Z,98011.31
2023-02-24T02:42:30.308Z,98014.16
2023-02-24T02:42:46.514Z,98007.09
2023-02-24T02:43:00.723Z,98013.09
2023-02-24T02:43:24.630Z,98008.69
2023-02-24T02:43:49.041Z,98009.47
2023-02-24T02:44:24.310Z,98014.22
2023-02-24T02:44:47.617Z,98006.06
2023-02-24T02:45:13.387Z,98007.16
2023-02-24T02:45:37.352Z,98011.44
2023-02-24T02:45:57.647Z,98010.53
2023-02-24T02:46:34.799Z,98005.97
2023-02-24T02:47:09.008Z,98002.44
2023-02-24T02:47:30.343Z,98010.53
2023-02-24T02:47:51.998Z,98005.06
2023-02-24T02:48:20.286Z,98003.41
2023-02-24T02:48:57.298Z,98003.41
2023-02-24T02:49:17.042Z,98001.53
2023-02-24T02:49:41.789Z,97996.41
2023-02-24T02:50:32.471Z,97997.22
2023-02-24T02:50:48.870Z,98001.53
2023-02-24T02:51:10.944Z,97996.97
2023-02-24T02:51:31.348Z,97999.62
2023-02-24T02:51:53.943Z,97998.53
2023-02-24T03:28:34.223Z,97970.81
2023-02-24T03:29:22.921Z,97969.00
2023-02-24T03:29:55.757Z,97963.03
2023-02-24T03:30:16.074Z,97963.47
2023-02-24T03:30:53.426Z,97963.63
2023-02-24T03:31:33.274Z,97967.31
2023-02-24T03:31:55.433Z,97970.59
2023-02-24T03:32:18.685Z,97960.91
2023-02-24T03:32:36.633Z,97968.59
2023-02-24T03:32:57.545Z,97966.00
2023-02-24T03:33:18.702Z,97973.87
2023-02-24T03:33:38.378Z,97968.59
2023-02-24T03:34:05.545Z,97964.22
2023-02-24T03:34:49.525Z,97966.75
2023-02-24T03:35:15.123Z,97962.50
2023-02-24T03:35:29.906Z,97962.34
2023-02-24T03:35:43.321Z,97966.81
2023-02-24T03:36:01.577Z,97970.34
2023-02-24T03:36:15.162Z,97966.06
2023-02-24T03:36:28.651Z,97968.59
2023-02-24T03:36:42.681Z,97969.47
2023-02-24T03:36:56.006Z,97965.75
2023-02-24T03:37:08.797Z,97966.75
2023-02-24T03:37:27.438Z,97960.69
2023-02-24T03:37:41.181Z,97972.25
2023-02-24T03:37:57.532Z,97963.41
2023-02-24T03:38:10.868Z,97966.84
2023-02-24T03:38:24.468Z,97964.06
2023-02-24T03:38:38.632Z,97966.97
2023-02-24T03:38:51.522Z,97960.97
2023-02-24T03:39:05.761Z,97965.19
2023-02-24T03:39:18.607Z,97965.25
2023-02-24T03:39:32.722Z,97963.41
2023-02-24T03:39:47.701Z,97972.97
2023-02-24T03:40:08.218Z,97962.34
2023-02-24T03:40:21.734Z,97958.09
2023-02-24T03:40:35.499Z,97958.28
2023-02-24T03:40:48.291Z,97961.56
2023-02-24T03:41:01.093Z,97964.84
2023-02-24T03:41:13.875Z,97969.25
2023-02-24T03:41:30.764Z,97964.13
2023-02-24T03:42:09.376Z,97969.31
2023-02-24T03:42:22.396Z,97969.56
2023-02-24T03:42:35.235Z,97966.63
2023-02-24T03:42:49.894Z,97961.47
2023-02-24T03:43:11.870Z,97964.91
2023-02-24T03:43:29.954Z,97965.84
2023-02-24T03:43:46.605Z,97964.91
2023-02-24T03:43:59.434Z,97960.00
2023-02-24T03:44:12.960Z,97956.44
2023-02-24T03:44:25.752Z,97959.13
2023-02-24T03:44:38.610Z,97961.72
2023-02-24T03:44:51.407Z,97968.69
2023-02-24T03:45:06.430Z,97960.00
2023-02-24T03:45:22.498Z,97966.13
2023-02-24T03:45:37.988Z,97960.72
2023-02-24T03:45:51.073Z,97964.34
2023-02-24T03:46:05.298Z,97958.16
2023-02-24T03:46:18.645Z,97959.84
2023-02-24T03:46:31.918Z,97962.62
2023-02-24T03:47:03.544Z,97958.22
2023-02-24T03:47:17.208Z,97961.56
2023-02-24T03:47:30.305Z,97950.00
2023-02-24T03:47:46.692Z,97958.06
2023-02-24T03:47:59.862Z,97958.94
2023-02-24T03:48:13.070Z,97956.22
2023-02-24T03:48:27.219Z,97956.00
2023-02-24T03:48:46.573Z,97954.34
2023-02-24T03:49:03.042Z,97956.31
2023-02-24T03:49:16.790Z,97958.84
2023-02-24T03:49:29.763Z,97954.50
2023-02-24T03:49:43.816Z,97950.81
2023-02-24T03:49:56.682Z,97956.28
2023-02-24T03:50:19.573Z,97959.06
2023-02-24T03:50:32.498Z,97954.78
2023-02-24T03:50:45.352Z,97952.16
2023-02-24T03:50:59.443Z,97953.19
2023-02-24T03:51:17.888Z,97954.00
2023-02-24T03:51:31.729Z,97951.03
2023-02-24T03:52:08.845Z,97955.44
2023-02-24T03:52:49.545Z,97950.25
2023-02-24T03:53:06.521Z,97950.31
2023-02-24T03:53:31.116Z,97946.88
2023-02-24T03:54:19.273Z,97951.16
2023-02-24T03:54:59.342Z,97951.22
2023-02-24T03:55:21.613Z,97952.09
2023-02-24T03:55:37.788Z,97948.03
2023-02-24T03:55:58.715Z,97950.63
2023-02-24T03:56:31.918Z,97949.81
2023-02-24T03:57:06.134Z,97947.06
2023-02-24T03:57:54.883Z,97949.69
2023-02-24T03:58:47.354Z,97952.28
2023-02-24T03:59:04.140Z,97945.28
2023-02-24T03:59:38.316Z,97943.31
2023-02-24T03:59:58.808Z,97937.31
2023-02-24T04:00:22.846Z,97939.94
2023-02-24T04:00:44.720Z,97939.03
2023-02-24T04:01:30.994Z,97943.56
2023-02-24T04:01:51.954Z,97947.16
2023-02-24T04:02:09.885Z,97939.94
2023-02-24T04:02:24.680Z,97936.37
2023-02-24T04:02:37.557Z,97940.00
2023-02-24T04:02:51.223Z,97940.88
2023-02-24T04:03:12.727Z,97941.78
2023-02-24T04:03:33.613Z,97938.31
2023-02-24T04:03:52.220Z,97941.09
2023-02-24T04:04:37.040Z,97937.88
2023-02-24T04:04:55.388Z,97938.16
2023-02-24T04:05:13.761Z,97939.88
2023-02-24T04:05:27.616Z,97944.34
2023-02-24T04:05:47.618Z,97943.22
2023-02-24T04:06:06.349Z,97940.66